Time;durP1;ratioP1;P1;durP2;ratioP2;P2;SDS_P1;SDS_P2;PMS_P1;PMS_P2;Temp;Humidity;BMP_temperature;BMP_pressure;BME280_temperature;BME280_humidity;BME280_pressure;Samples;Min_cycle;Max_cycle;Signal;HPM_P1;HPM_P2
2021/12/17 00:01:31;;;;;;;14.20;6.15;;;;;;;4.24;76.13;98411.22;1723186;83;25757;-80
2021/12/17 00:03:50;;;;;;;18.23;5.80;;;;;;;4.24;76.05;98414.73;1729714;81;25714;-80
2021/12/17 00:08:52;;;;;;;13.10;7.20;;;;;;;4.22;76.06;98414.56;1723383;83;25705;-80
2021/12/17 00:11:20;;;;;;;14.63;6.78;;;;;;;4.17;75.96;98427.02;1726990;82;27429;-80
2021/12/17 00:13:49;;;;;;;16.20;6.72;;;;;;;4.16;75.97;98426.66;1692076;84;25919;-80
2021/12/17 00:16:21;;;;;;;14.63;7.33;;;;;;;4.16;75.99;98419.14;1723362;83;25738;-80
2021/12/17 00:18:59;;;;;;;14.65;6.60;;;;;;;4.16;76.03;98405.78;1727391;81;25816;-80
2021/12/17 00:48:51;;;;;;;15.90;7.87;;;;;;;4.30;75.64;98383.92;1723654;83;25737;-80
2021/12/17 00:54:01;;;;;;;16.42;7.72;;;;;;;4.31;75.71;98401.15;1723536;83;25714;-80
2021/12/17 00:56:28;;;;;;;20.95;8.70;;;;;;;4.31;75.68;98401.64;1726952;82;25705;-81
2021/12/17 00:58:56;;;;;;;19.20;9.25;;;;;;;4.32;75.73;98406.84;1723489;83;26320;-81
2021/12/17 01:01:22;;;;;;;16.65;8.80;;;;;;;4.30;75.69;98405.30;1727244;83;25864;-80
2021/12/17 01:03:50;;;;;;;16.73;8.70;;;;;;;4.29;75.68;98409.80;1723495;83;27455;-80
2021/12/17 01:06:16;;;;;;;17.98;8.30;;;;;;;4.29;75.71;98403.61;1727120;81;25268;-80
2021/12/17 01:08:43;;;;;;;21.97;8.58;;;;;;;4.31;75.74;98408.33;1723549;83;25750;-80
2021/12/17 01:11:10;;;;;;;18.95;8.63;;;;;;;4.30;75.74;98404.81;1727277;82;26304;-81
2021/12/17 01:13:40;;;;;;;16.87;8.98;;;;;;;4.28;75.73;98412.62;1723581;83;25768;-80
2021/12/17 01:16:09;;;;;;;19.20;8.88;;;;;;;4.30;75.82;98411.48;1727234;82;27440;-80
2021/12/17 01:18:54;;;;;;;17.60;7.92;;;;;;;4.30;75.79;98409.31;1723278;83;25774;-80
2021/12/17 01:24:08;;;;;;;15.10;7.92;;;;;;;4.28;75.87;98397.92;1667257;85;25701;-80
2021/12/17 01:42:44;;;;;;;19.73;7.97;;;;;;;4.21;75.76;98362.09;1703364;84;28224;-79
2021/12/17 01:45:10;;;;;;;14.15;8.73;;;;;;;4.26;75.75;98362.47;1703165;84;25794;-80
2021/12/17 01:47:37;;;;;;;18.12;8.33;;;;;;;4.25;75.69;98364.80;1703490;83;25746;-80
2021/12/17 01:56:04;;;;;;;19.05;9.63;;;;;;;4.20;75.74;98363.08;1703540;84;28206;-80
2021/12/17 02:01:05;;;;;;;16.97;8.78;;;;;;;4.15;75.82;98354.66;1673790;85;25258;-80
2021/12/17 02:03:32;;;;;;;18.45;8.60;;;;;;;4.12;75.78;98355.78;1703530;83;26335;-80
2021/12/17 02:06:00;;;;;;;20.25;9.15;;;;;;;4.12;75.81;98362.96;1703579;83;25662;-80
2021/12/17 02:08:26;;;;;;;15.93;8.50;;;;;;;4.12;75.81;98358.95;1703530;84;27564;-79
2021/12/17 02:30:30;;;;;;;19.30;8.15;;;;;;;4.02;75.87;98331.44;1703525;84;26532;-80
2021/12/17 02:32:42;;;;;;;21.70;8.73;;;;;;;4.04;75.89;98333.48;1669361;84;25787;-80
2021/12/17 02:35:28;;;;;;;18.73;8.48;;;;;;;4.01;75.87;98329.76;1668095;86;28125;-80
2021/12/17 02:37:46;;;;;;;19.27;8.73;;;;;;;3.96;75.89;98323.05;1696204;84;25257;-80
2021/12/17 02:45:32;;;;;;;21.77;7.80;;;;;;;3.95;75.88;98331.20;1726800;82;25698;-80
2021/12/17 02:48:15;;;;;;;21.48;8.35;;;;;;;3.99;75.93;98324.06;1723304;83;27398;-80
2021/12/17 02:50:49;;;;;;;16.25;7.30;;;;;;;4.01;75.88;98324.41;1726704;81;25833;-80
2021/12/17 02:53:17;;;;;;;16.50;7.30;;;;;;;3.98;75.85;98328.25;1692001;84;25796;-80
2021/12/17 02:55:59;;;;;;;21.02;8.98;;;;;;;3.97;75.83;98330.56;1723183;83;26379;-80
2021/12/17 02:58:29;;;;;;;19.15;7.83;;;;;;;3.93;75.85;98316.66;1726994;82;25643;-80
2021/12/17 03:00:58;;;;;;;18.05;7.83;;;;;;;3.97;75.86;98323.39;1692028;84;28201;-80
2021/12/17 03:03:27;;;;;;;13.43;6.05;;;;;;;3.99;75.86;98316.05;1723242;83;25773;-81
2021/12/17 03:05:54;;;;;;;18.52;7.58;;;;;;;4.01;75.82;98320.41;1726980;82;25705;-80
2021/12/17 03:08:21;;;;;;;12.55;6.40;;;;;;;3.95;75.67;98318.69;1692086;84;25983;-80
2021/12/17 03:10:50;;;;;;;16.10;7.00;;;;;;;3.93;75.70;98320.66;1723387;83;25719;-81
2021/12/17 03:13:20;;;;;;;18.92;6.97;;;;;;;3.93;75.67;98317.15;1726981;82;28072;-81
2021/12/17 03:16:00;;;;;;;19.87;7.12;;;;;;;3.93;75.60;98317.99;1692062;84;25784;-80
2021/12/17 03:23:43;;;;;;;15.63;6.87;;;;;;;3.88;75.48;98316.24;1691900;84;26241;-80
2021/12/17 03:26:23;;;;;;;13.48;6.12;;;;;;;3.86;75.43;98308.90;1723306;83;27544;-80
2021/12/17 03:28:56;;;;;;;18.57;7.30;;;;;;;3.84;75.46;98312.20;1726909;83;26038;-81
2021/12/17 03:31:24;;;;;;;20.45;7.65;;;;;;;3.79;75.48;98311.80;1692045;84;25765;-81
2021/12/17 03:34:01;;;;;;;23.27;7.97;;;;;;;3.80;75.52;98317.48;1723422;83;26721;-81
2021/12/17 03:36:23;;;;;;;19.73;7.58;;;;;;;3.81;75.52;98314.32;1728254;81;25796;-80
2021/12/17 03:38:51;;;;;;;16.00;7.28;;;;;;;3.77;75.52;98312.42;1723415;83;28041;-80
2021/12/17 03:41:22;;;;;;;19.52;8.58;;;;;;;3.77;75.45;98307.09;1726896;82;26129;-80
2021/12/17 03:43:51;;;;;;;18.57;8.15;;;;;;;3.75;75.48;98318.89;1722971;83;25812;-80
2021/12/17 03:46:18;;;;;;;18.05;7.35;;;;;;;3.70;75.46;98304.67;1727106;82;25966;-80
2021/12/17 03:48:45;;;;;;;17.25;6.67;;;;;;;3.66;75.44;98295.75;1723614;83;25794;-80
2021/12/17 03:51:16;;;;;;;19.12;7.17;;;;;;;3.61;75.42;98306.88;1727221;82;28241;-81
2021/12/17 03:53:54;;;;;;;20.97;6.90;;;;;;;3.59;75.49;98303.52;1723484;83;25741;-80
2021/12/17 03:56:21;;;;;;;16.02;7.20;;;;;;;3.59;75.53;98298.17;1727180;81;25797;-80
2021/12/17 03:58:52;;;;;;;18.80;7.15;;;;;;;3.55;75.58;98307.45;1723561;83;26568;-80
2021/12/17 04:01:20;;;;;;;20.90;8.70;;;;;;;3.58;75.59;98309.84;1727280;83;25772;-80
2021/12/17 04:03:47;;;;;;;18.45;7.05;;;;;;;3.56;75.56;98314.48;1723549;83;27473;-80
2021/12/17 04:06:14;;;;;;;19.05;7.40;;;;;;;3.54;75.55;98309.28;1727056;82;26342;-81
2021/12/17 04:08:41;;;;;;;17.45;8.10;;;;;;;3.53;75.47;98304.08;1723489;83;26329;-80
2021/12/17 04:11:09;;;;;;;13.32;7.22;;;;;;;3.49;75.54;98301.37;1727194;83;26520;-80
2021/12/17 04:13:38;;;;;;;18.52;7.90;;;;;;;3.53;75.54;98313.42;1723614;83;25891;-80
2021/12/17 04:16:10;;;;;;;22.67;8.95;;;;;;;3.50;75.51;98311.07;1727218;82;27338;-80
2021/12/17 04:18:40;;;;;;;16.42;7.45;;;;;;;3.44;75.56;98320.48;1723614;83;25300;-80
2021/12/17 04:21:15;;;;;;;23.77;7.85;;;;;;;3.40;75.57;98324.91;1727268;82;25767;-80
2021/12/17 04:23:43;;;;;;;19.12;7.53;;;;;;;3.35;75.68;98323.18;1723585;83;26490;-80
2021/12/17 04:26:11;;;;;;;17.57;8.15;;;;;;;3.28;75.73;98330.90;1727227;82;25770;-80
2021/12/17 04:28:43;;;;;;;17.25;7.03;;;;;;;3.25;75.85;98332.05;1723521;83;27436;-80
2021/12/17 04:31:06;;;;;;;20.32;7.78;;;;;;;3.26;75.97;98326.19;1727979;80;25812;-80
2021/12/17 04:33:32;;;;;;;23.30;9.13;;;;;;;3.23;75.98;98328.68;1723203;83;25742;-80
2021/12/17 04:35:59;;;;;;;20.52;8.60;;;;;;;3.20;76.07;98324.11;1727009;82;25782;-80
2021/12/17 04:38:27;;;;;;;23.35;8.70;;;;;;;3.16;76.17;98327.55;1692105;84;25314;-80
2021/12/17 04:40:56;;;;;;;18.23;7.78;;;;;;;3.14;76.25;98320.17;1727216;81;28148;-81
2021/12/17 04:44:05;;;;;;;20.10;7.90;;;;;;;3.10;76.19;98325.47;1726668;80;25718;-81
2021/12/17 04:46:14;;;;;;;20.20;8.48;;;;;;;3.01;76.24;98326.33;1652400;84;25842;-81
2021/12/17 04:59:27;;;;;;;33.13;12.35;;;;;;;2.97;76.89;98320.06;1726727;82;25701;-81
2021/12/17 05:01:53;;;;;;;26.52;9.88;;;;;;;2.90;76.90;98319.77;1727121;83;25806;-81
2021/12/17 05:04:20;;;;;;;21.27;8.80;;;;;;;2.96;77.11;98326.38;1723273;83;25908;-80
2021/12/17 05:06:47;;;;;;;23.27;8.90;;;;;;;3.01;77.08;98332.16;1726913;82;27612;-81
2021/12/17 05:09:27;;;;;;;20.60;9.80;;;;;;;3.08;77.25;98339.44;1691961;84;25831;-81
2021/12/17 05:22:12;;;;;;;23.83;12.45;;;;;;;3.05;77.09;98321.03;1727050;83;25686;-81
2021/12/17 05:24:38;;;;;;;23.50;9.65;;;;;;;2.97;77.08;98316.91;1727135;83;25748;-80
2021/12/17 05:27:05;;;;;;;26.05;10.08;;;;;;;2.99;77.11;98326.95;1723255;83;26431;-81
2021/12/17 05:29:32;;;;;;;34.35;17.77;;;;;;;3.01;77.09;98328.98;1721474;83;25258;-81
2021/12/17 05:31:58;;;;;;;35.13;18.42;;;;;;;3.02;77.09;98330.65;1721480;83;27432;-81
2021/12/17 05:34:25;;;;;;;32.25;13.38;;;;;;;3.05;77.07;98326.38;1720392;83;25339;-80
2021/12/17 05:36:51;;;;;;;27.07;11.93;;;;;;;3.02;76.96;98329.31;1721223;83;25686;-80
2021/12/17 05:39:18;;;;;;;27.58;10.70;;;;;;;3.03;77.03;98328.33;1721401;83;25862;-80
2021/12/17 05:41:45;;;;;;;32.38;12.35;;;;;;;3.06;76.99;98321.39;1721491;83;25794;-81
2021/12/17 05:44:14;;;;;;;38.13;13.05;;;;;;;3.03;76.91;98328.33;1721196;83;27429;-80
2021/12/17 05:46:50;;;;;;;21.27;9.70;;;;;;;3.00;77.02;98311.80;1721191;83;25886;-80
2021/12/17 05:49:19;;;;;;;25.62;11.28;;;;;;;3.03;77.06;98306.16;1727134;82;25701;-80
2021/12/17 05:51:46;;;;;;;29.35;10.48;;;;;;;3.04;76.91;98307.84;1723466;83;25922;-81
2021/12/17 05:54:14;;;;;;;23.42;8.23;;;;;;;3.04;76.76;98321.17;1723545;83;25814;-81
2021/12/17 05:56:41;;;;;;;17.27;8.45;;;;;;;2.98;76.73;98317.27;1727144;82;28085;-80
2021/12/17 05:59:08;;;;;;;21.50;8.90;;;;;;;2.93;76.77;98316.83;1723411;83;25743;-81
2021/12/17 06:01:35;;;;;;;34.70;14.98;;;;;;;2.97;76.83;98316.91;1727065;82;25777;-80
2021/12/17 06:04:04;;;;;;;69.80;29.25;;;;;;;2.96;76.85;98321.89;1723565;83;25846;-81
2021/12/17 06:06:40;;;;;;;185.60;70.70;;;;;;;3.00;76.90;98311.80;1723618;83;25674;-81
2021/12/17 06:09:08;;;;;;;187.95;71.75;;;;;;;3.07;76.89;98313.73;1721423;83;26953;-81
2021/12/17 06:11:36;;;;;;;128.45;52.27;;;;;;;3.12;76.83;98311.50;1721485;83;25740;-81
2021/12/17 06:14:05;;;;;;;58.10;26.07;;;;;;;3.10;76.83;98318.80;1721445;83;25730;-81
2021/12/17 06:16:35;;;;;;;58.13;25.75;;;;;;;3.10;76.83;98312.12;1721469;83;25786;-80
2021/12/17 06:19:03;;;;;;;47.60;24.07;;;;;;;3.14;76.83;98318.84;1721505;83;25783;-81
2021/12/17 06:21:30;;;;;;;43.85;21.23;;;;;;;3.19;76.77;98304.59;1721507;83;26854;-80
2021/12/17 06:23:57;;;;;;;28.42;12.45;;;;;;;3.22;76.71;98327.00;1721390;83;25674;-81
2021/12/17 06:26:23;;;;;;;31.73;11.55;;;;;;;3.19;76.62;98327.27;1721465;83;25455;-81
2021/12/17 06:28:50;;;;;;;72.78;21.33;;;;;;;3.05;76.37;98326.38;1721504;83;26441;-81
2021/12/17 06:31:23;;;;;;;26.52;10.30;;;;;;;3.02;76.40;98336.50;1721388;83;25809;-80
2021/12/17 06:33:50;;;;;;;20.10;8.45;;;;;;;2.92;76.30;98337.81;1721371;83;27252;-81
2021/12/17 06:36:16;;;;;;;18.32;9.28;;;;;;;2.83;76.24;98340.84;1727168;82;25280;-81
2021/12/17 06:38:43;;;;;;;15.83;7.78;;;;;;;2.82;76.28;98344.98;1723613;83;25937;-81
2021/12/17 06:41:10;;;;;;;18.07;7.97;;;;;;;2.85;76.38;98340.70;1727244;81;25798;-81
2021/12/17 06:43:39;;;;;;;22.40;7.75;;;;;;;2.89;76.34;98350.13;1723668;83;25715;-81
2021/12/17 06:48:41;;;;;;;24.77;8.80;;;;;;;2.96;76.35;98345.89;1723463;83;26413;-81
2021/12/17 06:57:48;;;;;;;24.15;10.82;;;;;;;3.00;76.32;98349.98;1727001;83;25721;-81
2021/12/17 07:10:59;;;;;;;46.35;17.57;;;;;;;2.97;76.25;98350.25;1721567;83;25896;-81
2021/12/17 07:19:01;;;;;;;31.65;12.68;;;;;;;2.97;76.07;98352.08;1699015;83;25404;-81
2021/12/17 07:23:50;;;;;;;23.07;11.12;;;;;;;2.94;76.08;98357.19;1721445;83;25885;-81
2021/12/17 07:29:25;;;;;;;26.33;10.60;;;;;;;2.90;75.91;98359.77;1721519;83;26654;-80
2021/12/17 07:34:00;;;;;;;23.35;10.30;;;;;;;2.88;75.88;98361.77;1721341;82;25798;-80
2021/12/17 07:36:19;;;;;;;22.07;8.53;;;;;;;2.87;75.76;98362.75;1720258;83;25743;-80
2021/12/17 07:38:50;;;;;;;23.32;11.28;;;;;;;2.83;75.75;98358.17;1721630;83;28307;-80
2021/12/17 07:41:18;;;;;;;22.82;9.75;;;;;;;2.79;75.75;98368.76;1721476;83;25283;-82
2021/12/17 07:43:53;;;;;;;20.68;8.73;;;;;;;2.80;75.72;98371.78;1726971;82;25737;-80
2021/12/17 07:46:20;;;;;;;20.48;10.05;;;;;;;2.78;75.53;98370.23;1689537;84;25879;-80
2021/12/17 07:48:47;;;;;;;21.75;9.63;;;;;;;2.78;75.59;98368.89;1723354;83;25674;-80
2021/12/17 07:51:17;;;;;;;20.30;9.43;;;;;;;2.77;75.60;98371.23;1726945;82;27401;-80
2021/12/17 07:53:45;;;;;;;22.25;10.10;;;;;;;2.75;75.55;98367.86;1691980;84;25747;-81
2021/12/17 07:56:16;;;;;;;22.27;10.38;;;;;;;2.80;75.57;98370.94;1723318;83;25752;-80
2021/12/17 07:58:43;;;;;;;25.68;10.28;;;;;;;2.87;75.66;98361.41;1721731;83;26405;-80
2021/12/17 08:01:12;;;;;;;23.25;10.65;;;;;;;2.95;75.47;98354.87;1721594;83;25868;-80
2021/12/17 08:03:40;;;;;;;18.45;9.50;;;;;;;3.02;75.53;98349.31;1718445;83;27646;-81
2021/12/17 08:06:07;;;;;;;32.88;13.18;;;;;;;3.04;75.37;98352.69;1718267;83;25754;-81
2021/12/17 08:08:34;;;;;;;21.27;9.05;;;;;;;3.03;75.12;98349.67;1718526;83;26324;-80
2021/12/17 08:11:02;;;;;;;19.57;9.55;;;;;;;3.00;74.95;98348.64;1718391;82;26481;-80
2021/12/17 08:13:32;;;;;;;26.73;10.58;;;;;;;2.93;74.88;98343.50;1718469;82;25737;-80
2021/12/17 08:18:49;;;;;;;22.22;10.05;;;;;;;2.94;74.95;98345.19;1718059;83;25700;-81
2021/12/17 08:26:26;;;;;;;22.95;9.48;;;;;;;3.05;74.86;98341.04;1718395;83;26285;-80
2021/12/17 08:29:23;;;;;;;20.35;9.93;;;;;;;3.12;74.81;98335.51;1719295;82;27392;-80
2021/12/17 08:31:22;;;;;;;35.45;15.15;;;;;;;3.14;74.81;98339.37;1721717;82;26053;-80
2021/12/17 08:33:49;;;;;;;32.13;13.83;;;;;;;3.24;74.82;98345.05;1716704;83;25913;-80
2021/12/17 08:36:16;;;;;;;24.18;11.33;;;;;;;3.30;74.83;98342.77;1704885;83;25940;-80
2021/12/17 08:38:44;;;;;;;21.25;9.83;;;;;;;3.34;74.76;98342.84;1699467;83;25791;-80
2021/12/17 08:41:12;;;;;;;40.40;16.25;;;;;;;3.32;74.51;98347.48;1699901;84;27432;-80
2021/12/17 08:43:40;;;;;;;33.95;15.50;;;;;;;3.35;74.57;98352.05;1699699;83;25794;-80
2021/12/17 08:46:07;;;;;;;28.38;13.88;;;;;;;3.39;74.50;98356.09;1699783;83;25775;-80
2021/12/17 08:48:34;;;;;;;28.05;13.83;;;;;;;3.41;74.51;98346.12;1699815;83;25654;-80
2021/12/17 08:51:01;;;;;;;29.87;12.50;;;;;;;3.46;74.40;98344.36;1699817;83;25700;-80
2021/12/17 08:53:28;;;;;;;30.70;12.13;;;;;;;3.50;74.40;98337.77;1699831;83;28144;-80
2021/12/17 08:55:55;;;;;;;21.40;9.65;;;;;;;3.52;74.21;98334.43;1699728;83;25752;-80
2021/12/17 08:58:22;;;;;;;26.07;9.85;;;;;;;3.49;74.13;98344.92;1699840;83;25758;-80
2021/12/17 09:00:48;;;;;;;20.40;8.40;;;;;;;3.50;74.10;98345.77;1699785;83;25827;-80
2021/12/17 09:03:15;;;;;;;20.55;7.85;;;;;;;3.53;74.06;98352.97;1699808;84;25782;-80
2021/12/17 09:05:45;;;;;;;18.52;8.05;;;;;;;3.56;73.91;98345.17;1699812;83;27526;-81
2021/12/17 09:08:13;;;;;;;20.95;8.75;;;;;;;3.50;73.78;98349.77;1699780;83;26396;-80
2021/12/17 09:10:43;;;;;;;19.60;7.87;;;;;;;3.47;73.75;98353.56;1699814;83;25698;-81
2021/12/17 09:13:09;;;;;;;21.75;8.38;;;;;;;3.45;73.77;98360.03;1699744;83;25777;-80
2021/12/17 09:15:36;;;;;;;22.65;8.65;;;;;;;3.47;73.88;98358.06;1699877;84;26284;-81
2021/12/17 09:18:03;;;;;;;21.20;8.43;;;;;;;3.47;73.69;98364.24;1699510;83;28443;-80
2021/12/17 09:20:30;;;;;;;28.95;9.78;;;;;;;3.46;73.71;98372.39;1699705;84;25825;-80
2021/12/17 09:22:56;;;;;;;16.07;8.25;;;;;;;3.46;73.71;98377.73;1699845;83;26346;-81
2021/12/17 09:25:23;;;;;;;25.50;8.73;;;;;;;3.43;73.68;98375.34;1699792;83;25785;-80
2021/12/17 09:27:49;;;;;;;19.05;8.83;;;;;;;3.40;73.64;98378.28;1699718;83;25789;-81
2021/12/17 09:30:18;;;;;;;17.48;7.72;;;;;;;3.38;73.64;98378.42;1699834;83;27421;-81
2021/12/17 09:32:46;;;;;;;22.02;9.23;;;;;;;3.37;73.76;98373.26;1699748;84;25823;-80
2021/12/17 09:35:13;;;;;;;16.85;7.30;;;;;;;3.39;73.67;98373.93;1699629;81;25778;-80
2021/12/17 09:37:40;;;;;;;17.70;6.58;;;;;;;3.35;73.49;98373.89;1699745;83;25721;-80
2021/12/17 09:40:11;;;;;;;13.38;7.20;;;;;;;3.26;73.61;98370.22;1699804;84;25730;-80
2021/12/17 09:42:39;;;;;;;20.02;7.80;;;;;;;3.25;73.74;98368.08;1699719;83;28166;-80
2021/12/17 09:45:07;;;;;;;17.67;7.95;;;;;;;3.30;73.69;98361.45;1699653;83;25257;-80
2021/12/17 09:47:34;;;;;;;20.75;7.42;;;;;;;3.29;73.64;98356.60;1699373;84;37149;-80
2021/12/17 09:50:01;;;;;;;18.77;7.60;;;;;;;3.31;73.68;98355.97;1699484;83;26370;-80
2021/12/17 09:52:28;;;;;;;19.65;7.75;;;;;;;3.35;73.63;98355.20;1699758;83;25758;-80
2021/12/17 09:54:57;;;;;;;17.90;7.70;;;;;;;3.38;73.62;98353.06;1699691;83;28219;-80
2021/12/17 09:57:25;;;;;;;24.98;8.75;;;;;;;3.41;73.65;98339.94;1699714;83;27045;-80
2021/12/17 09:59:53;;;;;;;32.15;13.78;;;;;;;3.43;73.56;98335.30;1699783;83;25743;-80
2021/12/17 10:02:20;;;;;;;34.83;13.43;;;;;;;3.46;73.64;98338.53;1699771;84;25921;-80
2021/12/17 10:04:47;;;;;;;37.30;16.65;;;;;;;3.53;73.59;98337.45;1699821;83;25746;-80
2021/12/17 10:07:29;;;;;;;25.27;11.85;;;;;;;3.56;73.48;98334.50;1699725;83;27387;-80
2021/12/17 10:10:02;;;;;;;;;;;;;;;3.59;73.35;98331.55;1702215;83;25711;-80
2021/12/17 10:12:32;;;;;;;28.73;10.50;;;;;;;3.51;73.23;98327.41;1699776;84;26411;-80
2021/12/17 10:15:07;;;;;;;17.67;8.13;;;;;;;3.44;73.31;98330.31;1674398;84;26299;-80
2021/12/17 10:17:37;;;;;;;19.73;8.08;;;;;;;3.39;73.35;98332.07;1699500;83;25250;-81
2021/12/17 10:20:07;;;;;;;25.85;9.60;;;;;;;3.34;73.32;98337.50;1699514;83;27427;-80
2021/12/17 10:22:34;;;;;;;21.50;8.85;;;;;;;3.25;73.38;98322.71;1699638;83;25668;-80
2021/12/17 10:25:06;;;;;;;20.50;8.43;;;;;;;3.28;73.45;98327.39;1699840;83;25711;-80
2021/12/17 10:27:37;;;;;;;18.48;7.92;;;;;;;3.31;73.50;98327.11;1699975;83;35227;-80
2021/12/17 10:30:21;;;;;;;22.65;7.53;;;;;;;3.27;73.35;98322.55;1699783;83;25734;-80
2021/12/17 10:32:53;;;;;;;16.82;7.33;;;;;;;3.24;73.46;98318.36;1699794;84;27447;-81
2021/12/17 10:35:26;;;;;;;16.85;7.47;;;;;;;3.28;73.54;98316.22;1698756;81;25874;-80
2021/12/17 10:38:03;;;;;;;30.20;9.33;;;;;;;3.33;73.42;98313.13;1699753;83;25904;-80
2021/12/17 10:40:42;;;;;;;18.70;8.53;;;;;;;3.38;73.39;98302.88;1699567;84;25754;-80
2021/12/17 10:43:19;;;;;;;31.80;12.37;;;;;;;3.43;73.42;98301.45;1699611;83;25977;-80
2021/12/17 10:45:58;;;;;;;38.63;15.70;;;;;;;3.53;73.45;98312.94;1699379;84;27525;-81
2021/12/17 10:50:51;;;;;;;28.40;10.60;;;;;;;3.64;73.14;98301.23;1699775;83;32799;-80
2021/12/17 10:53:26;;;;;;;20.23;8.20;;;;;;;3.66;72.99;98304.59;1699737;84;26302;-80
2021/12/17 10:55:56;;;;;;;14.30;7.22;;;;;;;3.71;73.01;98305.02;1699714;83;25702;-80
2021/12/17 10:58:23;;;;;;;22.35;7.55;;;;;;;3.72;72.81;98304.03;1699479;83;27356;-80
2021/12/17 11:01:06;;;;;;;20.20;7.85;;;;;;;3.69;72.69;98301.65;1699494;83;25810;-80
2021/12/17 11:03:42;;;;;;;29.00;8.83;;;;;;;3.67;72.70;98302.28;1699698;84;25754;-80
2021/12/17 11:06:09;;;;;;;16.48;7.53;;;;;;;3.62;72.69;98297.37;1699025;83;26569;-80
2021/12/17 11:08:37;;;;;;;19.90;8.80;;;;;;;3.66;72.80;98295.75;1699785;83;25684;-80
2021/12/17 11:11:11;;;;;;;17.70;8.08;;;;;;;3.69;72.66;98300.31;1699652;83;27294;-80
2021/12/17 11:13:58;;;;;;;24.05;8.65;;;;;;;3.65;72.75;98293.57;1699652;83;25779;-81
2021/12/17 11:16:27;;;;;;;20.32;8.15;;;;;;;3.70;72.69;98299.33;1699711;83;25756;-80
2021/12/17 11:18:54;;;;;;;21.30;9.40;;;;;;;3.74;72.63;98296.72;1699642;83;25843;-80
2021/12/17 11:21:21;;;;;;;21.42;10.63;;;;;;;3.76;72.61;98289.87;1699947;83;25801;-81
2021/12/17 11:23:47;;;;;;;28.02;13.38;;;;;;;3.84;72.61;98299.34;1699773;83;27384;-81
2021/12/17 11:26:14;;;;;;;31.35;14.30;;;;;;;3.82;72.42;98292.81;1717847;83;25769;-80
2021/12/17 11:28:44;;;;;;;27.77;10.55;;;;;;;3.81;72.45;98295.13;1703594;84;25740;-81
2021/12/17 11:31:12;;;;;;;20.02;10.18;;;;;;;3.83;72.36;98294.50;1717909;83;25758;-80
2021/12/17 11:33:39;;;;;;;23.40;10.13;;;;;;;3.80;72.27;98286.77;1703686;84;25696;-80
2021/12/17 11:36:06;;;;;;;25.68;10.05;;;;;;;3.82;72.29;98280.80;1722874;81;27326;-80
2021/12/17 11:39:05;;;;;;;19.27;8.78;;;;;;;3.81;72.17;98284.45;1696219;84;25745;-80
2021/12/17 11:41:58;;;;;;;16.85;8.13;;;;;;;3.80;72.07;98284.09;1692095;84;25264;-80
2021/12/17 11:44:39;;;;;;;23.95;8.50;;;;;;;3.79;72.05;98287.75;1723357;83;25698;-80
2021/12/17 11:47:06;;;;;;;14.55;7.20;;;;;;;3.72;71.96;98285.34;1729535;80;25753;-80
2021/12/17 11:49:39;;;;;;;40.48;17.25;;;;;;;3.66;72.04;98283.23;1691827;84;28257;-80
2021/12/17 11:52:06;;;;;;;33.80;16.37;;;;;;;3.63;72.13;98278.19;1726876;83;25965;-81
2021/12/17 11:54:35;;;;;;;26.07;14.00;;;;;;;3.53;72.07;98277.39;1703921;83;25893;-80
2021/12/17 11:57:12;;;;;;;23.07;9.08;;;;;;;3.48;72.11;98279.67;1697878;83;25687;-81
2021/12/17 11:59:43;;;;;;;27.60;9.60;;;;;;;3.44;72.18;98276.94;1696436;83;25737;-80
2021/12/17 12:02:16;;;;;;;24.32;12.50;;;;;;;3.44;72.27;98271.59;1697522;84;27575;-80
2021/12/17 12:04:46;;;;;;;28.65;14.33;;;;;;;3.50;72.29;98268.36;1726766;82;25821;-81
2021/12/17 12:07:28;;;;;;;18.82;9.33;;;;;;;3.53;72.36;98266.70;1696280;84;25284;-80
2021/12/17 12:10:19;;;;;;;21.45;9.73;;;;;;;3.54;72.23;98265.72;1698128;83;25762;-80
2021/12/17 12:12:52;;;;;;;29.48;10.55;;;;;;;3.48;72.25;98271.66;1696171;83;25678;-80
2021/12/17 12:15:27;;;;;;;22.62;9.13;;;;;;;3.43;72.28;98277.92;1697837;83;27447;-80
2021/12/17 12:18:15;;;;;;;23.45;10.48;;;;;;;3.42;72.29;98272.23;1726709;83;25750;-80
2021/12/17 12:20:50;;;;;;;27.17;9.53;;;;;;;3.37;72.32;98265.17;1726956;83;25822;-80
2021/12/17 12:23:29;;;;;;;23.67;8.78;;;;;;;3.38;72.38;98264.19;1726667;83;25729;-81
2021/12/17 12:26:08;;;;;;;24.37;9.03;;;;;;;3.40;72.36;98251.02;1727163;82;25759;-81
2021/12/17 12:28:49;;;;;;;17.55;9.00;;;;;;;3.39;72.33;98265.34;1696278;83;27383;-80
2021/12/17 12:31:35;;;;;;;22.67;9.45;;;;;;;3.37;72.27;98262.01;1697812;83;25877;-80
2021/12/17 12:34:10;;;;;;;23.87;9.80;;;;;;;3.39;72.36;98255.16;1696114;83;25679;-81
2021/12/17 12:37:06;;;;;;;20.80;10.00;;;;;;;3.43;72.39;98264.58;1701144;83;26558;-80
2021/12/17 12:39:45;;;;;;;23.77;11.60;;;;;;;3.40;72.38;98265.70;1701795;83;25766;-80
2021/12/17 12:42:27;;;;;;;26.42;11.55;;;;;;;3.33;72.45;98255.77;1746822;81;28168;-80
2021/12/17 12:45:05;;;;;;;29.65;11.63;;;;;;;3.35;72.58;98262.64;1726839;82;25825;-80
2021/12/17 12:47:54;;;;;;;26.25;11.50;;;;;;;3.38;72.57;98262.85;1727214;83;25260;-80
2021/12/17 12:50:25;;;;;;;24.45;11.48;;;;;;;3.43;72.67;98263.23;1726604;82;26218;-80
2021/12/17 12:53:03;;;;;;;30.20;13.43;;;;;;;3.44;72.55;98266.26;1727218;83;25670;-80
2021/12/17 12:55:43;;;;;;;31.37;12.70;;;;;;;3.43;72.69;98269.42;1727175;83;27390;-80
2021/12/17 12:58:17;;;;;;;27.20;12.33;;;;;;;3.38;72.74;98265.52;1726988;82;25816;-80
2021/12/17 13:00:55;;;;;;;28.55;13.30;;;;;;;3.34;72.79;98270.79;1727155;83;25750;-80
2021/12/17 13:03:28;;;;;;;32.23;13.50;;;;;;;3.21;73.03;98273.28;1727162;82;25734;-81
2021/12/17 13:05:57;;;;;;;28.67;13.03;;;;;;;3.22;73.24;98274.96;1727190;82;25727;-80
2021/12/17 13:08:25;;;;;;;30.80;13.72;;;;;;;3.22;73.45;98277.63;1727152;83;27458;-81
2021/12/17 13:10:55;;;;;;;27.98;12.82;;;;;;;3.21;73.49;98267.94;1727120;83;26581;-80
2021/12/17 13:21:35;;;;;;;44.83;19.20;;;;;;;2.99;73.29;98250.94;1727218;83;27413;-79
2021/12/17 13:23:55;;;;;;;40.70;21.45;;;;;;;2.92;73.44;98257.81;1726634;83;25973;-80
2021/12/17 13:26:24;;;;;;;46.68;23.62;;;;;;;2.84;73.65;98265.20;1726992;83;25745;-81
2021/12/17 13:29:06;;;;;;;39.35;21.20;;;;;;;2.86;73.77;98269.06;1727169;82;26547;-80
2021/12/17 13:31:55;;;;;;;30.35;15.55;;;;;;;2.86;73.81;98273.06;1727330;83;25729;-81
2021/12/17 13:34:29;;;;;;;31.02;14.38;;;;;;;2.86;73.79;98269.06;1727198;83;27385;-80
2021/12/17 13:37:11;;;;;;;54.67;21.75;;;;;;;2.80;73.83;98269.61;1710133;83;25777;-80
2021/12/17 13:39:52;;;;;;;43.45;16.37;;;;;;;2.81;74.43;98268.63;1699548;84;25300;-81
2021/12/17 13:42:23;;;;;;;41.68;18.92;;;;;;;2.81;74.16;98268.63;1717825;83;25723;-80
2021/12/17 13:45:13;;;;;;;34.38;15.90;;;;;;;2.75;74.12;98271.87;1703467;84;25675;-80
2021/12/17 13:47:53;;;;;;;28.07;14.13;;;;;;;2.76;74.13;98278.41;1717807;83;27420;-80
2021/12/17 13:50:30;;;;;;;26.25;14.13;;;;;;;2.69;74.05;98272.42;1703281;83;25731;-80
2021/12/17 13:53:05;;;;;;;29.37;14.83;;;;;;;2.67;74.12;98269.05;1717814;83;25650;-80
2021/12/17 13:55:37;;;;;;;31.23;17.80;;;;;;;2.71;74.10;98268.64;1703669;83;25810;-80
2021/12/17 13:58:14;;;;;;;36.60;17.57;;;;;;;2.71;74.15;98269.13;1717574;83;25680;-81
2021/12/17 14:00:49;;;;;;;37.90;18.27;;;;;;;2.71;74.15;98264.64;1703186;83;28210;-81
2021/12/17 14:03:19;;;;;;;29.85;15.18;;;;;;;2.68;74.06;98261.41;1721562;82;25643;-80
2021/12/17 14:05:50;;;;;;;33.48;15.95;;;;;;;2.65;74.15;98256.39;1717869;83;25783;-80
2021/12/17 14:08:18;;;;;;;31.40;15.80;;;;;;;2.66;74.14;98271.37;1703332;83;26667;-81
2021/12/17 14:10:48;;;;;;;29.67;14.73;;;;;;;2.65;74.21;98275.89;1717928;83;25650;-80
2021/12/17 14:13:27;;;;;;;25.48;13.65;;;;;;;2.60;74.17;98271.45;1703643;83;27211;-80
2021/12/17 14:15:55;;;;;;;30.55;14.33;;;;;;;2.66;74.28;98278.87;1717793;83;25710;-80
2021/12/17 14:18:27;;;;;;;23.83;13.48;;;;;;;2.68;74.21;98274.74;1703584;83;25770;-80
2021/12/17 14:20:57;;;;;;;36.88;16.82;;;;;;;2.70;74.09;98274.11;1718027;83;26406;-79
2021/12/17 14:23:28;;;;;;;26.60;13.28;;;;;;;2.70;74.06;98268.78;1715283;83;26303;-80
2021/12/17 14:26:00;;;;;;;27.87;14.05;;;;;;;2.72;73.99;98279.66;1717814;83;28357;-80
2021/12/17 14:28:37;;;;;;;33.63;15.20;;;;;;;2.71;73.87;98268.64;1703618;84;25756;-80